createdAt,value
2022-09-14T00:02:00.673Z,10.88
2022-09-14T00:07:02.397Z,9.70
2022-09-14T00:12:04.002Z,9.25
2022-09-14T00:17:05.634Z,9.20
2022-09-14T00:22:07.314Z,8.40
2022-09-14T00:27:08.914Z,9.93
2022-09-14T00:32:10.648Z,8.48
2022-09-14T00:37:12.669Z,9.35
2022-09-14T00:42:19.422Z,8.63
2022-09-14T00:47:21.089Z,8.48
2022-09-14T00:52:26.604Z,9.13
2022-09-14T00:57:34.102Z,8.55
2022-09-14T01:02:36.795Z,9.10
2022-09-14T01:08:01.762Z,8.63
2022-09-14T01:13:44.902Z,8.85
2022-09-14T01:18:55.451Z,9.95
2022-09-14T01:24:23.344Z,8.52
2022-09-14T01:29:28.273Z,8.32
2022-09-14T01:34:52.377Z,8.43
2022-09-14T01:40:04.209Z,8.35
2022-09-14T01:45:10.254Z,8.43
2022-09-14T01:50:19.142Z,9.07
2022-09-14T01:55:31.310Z,9.02
2022-09-14T02:00:33.706Z,8.38
2022-09-14T02:06:01.783Z,8.63
2022-09-14T02:11:03.434Z,8.98
2022-09-14T02:16:05.234Z,8.75
2022-09-14T02:21:14.444Z,8.35
2022-09-14T02:26:18.311Z,8.50
2022-09-14T02:31:53.982Z,9.10
2022-09-14T02:37:11.665Z,8.38
2022-09-14T02:42:37.020Z,8.63
2022-09-14T02:47:55.263Z,7.93
2022-09-14T02:53:08.502Z,8.32
2022-09-14T02:58:12.861Z,8.30
2022-09-14T03:03:17.797Z,7.97
2022-09-14T03:08:19.384Z,8.23
2022-09-14T03:13:21.403Z,8.70
2022-09-14T03:18:23.023Z,10.13
2022-09-14T03:23:24.596Z,9.02
2022-09-14T03:28:26.144Z,10.63
2022-09-14T03:33:27.734Z,9.90
2022-09-14T03:38:30.158Z,9.60
2022-09-14T03:43:31.708Z,9.45
2022-09-14T03:48:33.448Z,10.43
2022-09-14T03:53:35.727Z,10.98
2022-09-14T03:58:38.242Z,10.10
2022-09-14T04:03:40.480Z,9.55
2022-09-14T04:08:43.565Z,11.43
2022-09-14T04:13:46.264Z,10.45
2022-09-14T04:18:48.679Z,11.35
2022-09-14T04:29:41.851Z,11.15
2022-09-14T04:34:43.394Z,10.95
2022-09-14T04:39:44.976Z,12.13
2022-09-14T04:44:46.504Z,11.40
2022-09-14T04:49:48.042Z,11.48
2022-09-14T04:54:49.548Z,11.20
2022-09-14T04:59:51.056Z,10.63
2022-09-14T05:04:52.627Z,10.95
2022-09-14T05:09:54.334Z,10.88
2022-09-14T05:14:55.879Z,12.35
2022-09-14T05:19:57.396Z,11.77
2022-09-14T05:24:58.939Z,11.77
2022-09-14T05:30:00.493Z,10.60
2022-09-14T05:35:02.026Z,13.55
2022-09-14T05:40:05.700Z,11.93
2022-09-14T05:45:07.808Z,11.98
2022-09-14T05:50:09.602Z,10.40
2022-09-14T05:55:11.143Z,11.35
2022-09-14T06:00:13.361Z,12.10
2022-09-14T06:05:15.289Z,11.93
2022-09-14T06:10:16.924Z,10.93
2022-09-14T06:15:18.473Z,11.07
2022-09-14T06:20:19.972Z,10.75
2022-09-14T06:25:21.486Z,10.70
2022-09-14T06:30:23.132Z,11.23
2022-09-14T06:35:24.643Z,13.05
2022-09-14T06:40:27.156Z,11.60
2022-09-14T06:45:30.775Z,12.70
2022-09-14T06:50:32.288Z,13.68
2022-09-14T06:55:33.851Z,13.73
2022-09-14T07:00:35.671Z,12.98
2022-09-14T07:05:37.205Z,11.13
2022-09-14T07:10:38.876Z,12.32
2022-09-14T07:15:40.506Z,11.05
2022-09-14T07:20:42.038Z,10.68
2022-09-14T07:25:43.588Z,11.77
2022-09-14T07:30:45.161Z,13.45
2022-09-14T07:35:46.774Z,11.32
2022-09-14T07:40:48.903Z,11.27
2022-09-14T07:45:50.505Z,12.65
2022-09-14T07:51:03.208Z,12.30
2022-09-14T07:56:05.542Z,12.27
2022-09-14T08:01:12.046Z,11.63
2022-09-14T08:06:29.007Z,11.20
2022-09-14T08:11:32.184Z,11.18
2022-09-14T08:16:38.717Z,11.27
2022-09-14T08:21:46.434Z,12.65
2022-09-14T08:26:52.874Z,10.75
2022-09-14T08:32:20.094Z,12.70
2022-09-14T08:37:21.954Z,13.55
2022-09-14T08:42:25.574Z,13.57
2022-09-14T08:47:32.236Z,13.90
2022-09-14T08:52:38.317Z,14.70
2022-09-14T08:57:39.816Z,15.00
2022-09-14T09:03:18.976Z,12.93
2022-09-14T09:08:49.946Z,13.18
2022-09-14T09:13:53.137Z,12.75
2022-09-14T09:19:03.054Z,15.82
2022-09-14T09:24:20.163Z,12.55
2022-09-14T09:29:21.986Z,11.05
2022-09-14T09:34:42.297Z,19.00
2022-09-14T09:39:50.554Z,9.65
2022-09-14T09:45:05.373Z,7.65
2022-09-14T09:50:13.421Z,7.93
2022-09-14T09:55:20.373Z,7.78
2022-09-14T10:00:29.916Z,7.22
2022-09-14T10:05:32.601Z,6.95
2022-09-14T10:10:34.112Z,7.25
2022-09-14T10:15:39.283Z,6.20
2022-09-14T10:21:06.646Z,6.20
2022-09-14T10:26:14.171Z,6.32
2022-09-14T10:31:18.796Z,5.32
2022-09-14T10:36:31.023Z,4.00
2022-09-14T10:42:02.532Z,3.55
2022-09-14T10:47:10.101Z,3.47
2022-09-14T10:52:30.030Z,3.30
2022-09-14T10:57:54.380Z,4.03
2022-09-14T11:03:07.763Z,3.97
2022-09-14T11:08:15.025Z,4.50
2022-09-14T11:13:37.856Z,4.03
2022-09-14T11:18:45.486Z,4.00
2022-09-14T11:23:57.215Z,3.35
2022-09-14T11:29:21.530Z,7.78
2022-09-14T11:34:37.964Z,3.63
2022-09-14T11:39:48.002Z,4.72
2022-09-14T11:44:58.159Z,5.35
2022-09-14T11:50:15.237Z,6.53
2022-09-14T11:55:18.383Z,4.38
2022-09-14T12:00:20.299Z,4.93
2022-09-14T12:05:21.840Z,4.40
2022-09-14T12:10:23.869Z,4.63
2022-09-14T12:15:26.088Z,4.43
2022-09-14T12:20:50.510Z,5.03
2022-09-14T12:26:10.486Z,4.97
2022-09-14T12:31:29.628Z,4.95
2022-09-14T12:36:37.385Z,5.68
2022-09-14T12:41:39.458Z,7.57
2022-09-14T12:46:41.169Z,6.25
2022-09-14T12:51:48.744Z,6.78
2022-09-14T12:57:28.685Z,14.23
2022-09-14T13:02:48.792Z,5.80
2022-09-14T13:07:51.254Z,6.45
2022-09-14T13:13:03.135Z,5.32
2022-09-14T13:18:07.557Z,5.95
2022-09-14T13:23:23.113Z,5.35
2022-09-14T13:28:27.946Z,5.38
2022-09-14T13:33:30.308Z,5.85
2022-09-14T13:38:34.685Z,5.40
2022-09-14T13:43:36.501Z,5.05
2022-09-14T13:48:42.867Z,5.60
2022-09-14T13:53:49.908Z,6.03
2022-09-14T13:59:18.466Z,6.10
2022-09-14T14:04:36.263Z,6.25
2022-09-14T14:09:42.624Z,5.88
2022-09-14T14:14:56.621Z,6.65
2022-09-14T14:20:00.902Z,6.57
2022-09-14T14:25:19.122Z,5.63
2022-09-14T14:30:21.914Z,6.25
2022-09-14T14:35:27.073Z,7.00
2022-09-14T14:40:28.805Z,7.60
2022-09-14T14:45:35.953Z,7.20
2022-09-14T14:50:38.512Z,8.52
2022-09-14T14:55:40.943Z,8.57
2022-09-14T15:00:43.111Z,8.70
2022-09-14T15:05:48.061Z,7.30
2022-09-14T15:10:56.092Z,8.43
2022-09-14T15:15:57.691Z,7.28
2022-09-14T15:20:59.339Z,7.25
2022-09-14T15:26:01.064Z,6.60
2022-09-14T15:31:07.111Z,7.28
2022-09-14T15:36:09.360Z,7.22
2022-09-14T15:41:12.575Z,7.15
2022-09-14T15:46:14.189Z,6.72
2022-09-14T15:51:17.201Z,6.25
2022-09-14T15:56:19.575Z,6.55
2022-09-14T16:01:21.238Z,5.22
2022-09-14T16:06:23.004Z,5.60
2022-09-14T16:11:24.769Z,6.60
2022-09-14T16:16:26.700Z,6.43
2022-09-14T16:21:28.361Z,7.57
2022-09-14T16:26:33.764Z,7.25
2022-09-14T16:31:37.465Z,6.68
2022-09-14T16:36:40.555Z,8.00
2022-09-14T16:41:43.581Z,7.75
2022-09-14T16:46:45.912Z,8.52
2022-09-14T16:51:47.568Z,10.02
2022-09-14T16:56:49.535Z,10.20
2022-09-14T17:01:54.523Z,10.00
2022-09-14T17:06:56.881Z,9.75
2022-09-14T17:11:59.086Z,10.73
2022-09-14T17:17:01.418Z,10.07
2022-09-14T17:22:03.931Z,9.60
2022-09-14T17:27:05.540Z,6.13
2022-09-14T17:32:09.275Z,6.13
2022-09-14T17:37:14.191Z,6.80
2022-09-14T17:42:15.809Z,8.43
2022-09-14T17:47:17.432Z,7.47
2022-09-14T17:52:18.999Z,7.75
2022-09-14T17:57:20.589Z,9.68
2022-09-14T18:02:24.681Z,10.00
2022-09-14T18:07:27.064Z,10.10
2022-09-14T18:12:32.357Z,10.75
2022-09-14T18:17:38.030Z,10.75
2022-09-14T18:22:39.600Z,10.35
2022-09-14T18:27:41.184Z,11.10
2022-09-14T18:32:42.738Z,11.02
2022-09-14T18:37:44.315Z,11.68
2022-09-14T18:42:46.076Z,10.55
2022-09-14T18:47:47.634Z,14.27
2022-09-14T18:52:50.695Z,10.38
2022-09-14T18:57:52.360Z,12.02
2022-09-14T19:02:57.359Z,13.43
2022-09-14T19:07:59.878Z,11.50
2022-09-14T19:13:01.585Z,12.57
2022-09-14T19:18:03.154Z,14.10
2022-09-14T19:23:07.048Z,11.88
2022-09-14T19:28:09.009Z,15.68
2022-09-14T19:33:10.663Z,13.77
2022-09-14T19:38:12.192Z,11.27
2022-09-14T19:43:13.795Z,7.30
2022-09-14T19:48:15.524Z,3.30
2022-09-14T19:53:17.095Z,2.22
2022-09-14T19:58:18.737Z,2.20
2022-09-14T20:03:20.312Z,2.47
2022-09-14T20:08:21.869Z,2.30
2022-09-14T20:13:23.495Z,2.20
2022-09-14T20:18:25.391Z,1.90
2022-09-14T20:23:29.271Z,1.73
2022-09-14T20:28:33.693Z,1.67
2022-09-14T20:33:37.844Z,1.92
2022-09-14T20:38:48.502Z,1.92
2022-09-14T20:43:53.260Z,2.25
2022-09-14T20:48:55.085Z,1.92
2022-09-14T20:53:57.141Z,2.22
2022-09-14T20:59:00.906Z,2.30
2022-09-14T21:04:13.936Z,2.83
2022-09-14T21:09:18.092Z,3.20
2022-09-14T21:14:20.593Z,2.38
2022-09-14T21:19:27.408Z,3.30
2022-09-14T21:24:31.034Z,2.70
2022-09-14T21:29:32.731Z,2.47
2022-09-14T21:34:34.358Z,2.80
2022-09-14T21:39:37.984Z,2.28
2022-09-14T21:44:39.568Z,3.20
2022-09-14T21:49:41.116Z,2.33
2022-09-14T21:54:42.676Z,1.98
2022-09-14T21:59:44.420Z,1.85
2022-09-14T22:04:46.224Z,1.63
2022-09-14T22:09:50.150Z,1.70
2022-09-14T22:14:52.018Z,1.40
2022-09-14T22:19:59.449Z,1.50
2022-09-14T22:25:01.077Z,1.85
2022-09-14T22:48:47.951Z,2.75
2022-09-14T22:54:48.059Z,2.53
2022-09-14T23:06:23.868Z,2.10
2022-09-14T23:12:13.782Z,2.70
2022-09-14T23:22:56.729Z,3.22
2022-09-14T23:28:23.248Z,3.03
2022-09-14T23:51:02.776Z,4.20
